Terminal Aerodrome Forecast
Issued by NWS

Home | Current Version | Previous Version | Text Only | Print | Product List | Glossary On
Versions: 1 2 3 4 5 6 7 8 9 10 11 12 13
000
FTUS42 TJSJ 270100 CCA
TAFJPS
TAF COR
TJPS 270110Z 2700/2724 07006KT P6SM VCSH SCT030 BKN060
     FM270330 07005KT P6SM FEW030 SCT060
     FM271330 12014G20KT P6SM SCT030
      AMD NOT SKED TIL 270300=

USA.gov is the U.S. government's official web portal to all federal, state and local government web resources and services.